sensor_id;sensor_type;location;lat;lon;timestamp;temperature;humidity
36280;DHT22;22317;47.936;12.742;2023-08-06T00:00:09;12.40;71.70
36280;DHT22;22317;47.936;12.742;2023-08-06T00:02:35;12.40;71.60
36280;DHT22;22317;47.936;12.742;2023-08-06T00:05:01;12.40;71.50
36280;DHT22;22317;47.936;12.742;2023-08-06T00:07:26;12.40;71.50
36280;DHT22;22317;47.936;12.742;2023-08-06T00:09:52;12.40;71.50
36280;DHT22;22317;47.936;12.742;2023-08-06T00:12:18;12.30;71.50
36280;DHT22;22317;47.936;12.742;2023-08-06T00:14:44;12.30;71.50
36280;DHT22;22317;47.936;12.742;2023-08-06T00:17:09;12.40;71.60
36280;DHT22;22317;47.936;12.742;2023-08-06T00:19:35;12.30;71.60
36280;DHT22;22317;47.936;12.742;2023-08-06T00:22:01;12.30;71.50
36280;DHT22;22317;47.936;12.742;2023-08-06T00:24:27;12.30;71.50
36280;DHT22;22317;47.936;12.742;2023-08-06T00:26:53;12.30;71.70
36280;DHT22;22317;47.936;12.742;2023-08-06T00:29:19;12.40;71.60
36280;DHT22;22317;47.936;12.742;2023-08-06T00:31:45;12.30;71.40
36280;DHT22;22317;47.936;12.742;2023-08-06T00:34:10;12.30;71.40
36280;DHT22;22317;47.936;12.742;2023-08-06T00:36:36;12.30;71.40
36280;DHT22;22317;47.936;12.742;2023-08-06T00:39:02;12.30;71.40
36280;DHT22;22317;47.936;12.742;2023-08-06T00:41:28;12.20;71.30
36280;DHT22;22317;47.936;12.742;2023-08-06T00:43:54;12.20;71.30
36280;DHT22;22317;47.936;12.742;2023-08-06T00:46:21;12.20;71.50
36280;DHT22;22317;47.936;12.742;2023-08-06T00:48:47;12.20;71.70
36280;DHT22;22317;47.936;12.742;2023-08-06T00:51:13;12.20;71.60
36280;DHT22;22317;47.936;12.742;2023-08-06T00:53:40;12.30;71.50
36280;DHT22;22317;47.936;12.742;2023-08-06T00:56:06;12.30;71.40
36280;DHT22;22317;47.936;12.742;2023-08-06T00:58:32;12.30;71.30
36280;DHT22;22317;47.936;12.742;2023-08-06T01:00:59;12.30;71.20
36280;DHT22;22317;47.936;12.742;2023-08-06T01:03:25;12.20;71.00
36280;DHT22;22317;47.936;12.742;2023-08-06T01:05:51;12.20;71.30
36280;DHT22;22317;47.936;12.742;2023-08-06T01:11:11;12.20;71.40
36280;DHT22;22317;47.936;12.742;2023-08-06T01:13:47;12.20;71.30
36280;DHT22;22317;47.936;12.742;2023-08-06T01:16:19;10.60;70.50
36280;DHT22;22317;47.936;12.742;2023-08-06T01:18:47;12.20;72.00
36280;DHT22;22317;47.936;12.742;2023-08-06T01:21:15;12.10;71.20
36280;DHT22;22317;47.936;12.742;2023-08-06T01:23:42;12.10;71.20
36280;DHT22;22317;47.936;12.742;2023-08-06T01:26:26;12.20;71.30
36280;DHT22;22317;47.936;12.742;2023-08-06T01:31:33;12.10;71.10
36280;DHT22;22317;47.936;12.742;2023-08-06T01:34:02;12.10;71.20
36280;DHT22;22317;47.936;12.742;2023-08-06T01:36:28;12.10;71.20
36280;DHT22;22317;47.936;12.742;2023-08-06T01:38:55;12.10;71.20
36280;DHT22;22317;47.936;12.742;2023-08-06T01:41:22;12.10;71.00
36280;DHT22;22317;47.936;12.742;2023-08-06T01:43:48;12.00;71.00
36280;DHT22;22317;47.936;12.742;2023-08-06T01:46:14;12.00;71.10
36280;DHT22;22317;47.936;12.742;2023-08-06T01:48:40;11.90;71.10
36280;DHT22;22317;47.936;12.742;2023-08-06T01:51:06;11.90;71.10
36280;DHT22;22317;47.936;12.742;2023-08-06T01:53:33;11.90;71.30
36280;DHT22;22317;47.936;12.742;2023-08-06T01:55:59;12.00;71.30
36280;DHT22;22317;47.936;12.742;2023-08-06T01:58:25;12.00;71.10
36280;DHT22;22317;47.936;12.742;2023-08-06T02:00:50;12.00;70.90
36280;DHT22;22317;47.936;12.742;2023-08-06T02:03:16;11.90;70.80
36280;DHT22;22317;47.936;12.742;2023-08-06T02:05:42;11.90;70.90
36280;DHT22;22317;47.936;12.742;2023-08-06T02:08:08;11.90;71.00
36280;DHT22;22317;47.936;12.742;2023-08-06T02:10:34;11.90;71.00
36280;DHT22;22317;47.936;12.742;2023-08-06T02:13:00;11.90;70.90
36280;DHT22;22317;47.936;12.742;2023-08-06T02:15:26;11.90;70.90
36280;DHT22;22317;47.936;12.742;2023-08-06T02:17:52;12.00;71.00
36280;DHT22;22317;47.936;12.742;2023-08-06T02:20:18;11.90;70.90
36280;DHT22;22317;47.936;12.742;2023-08-06T02:22:43;11.90;70.90
36280;DHT22;22317;47.936;12.742;2023-08-06T02:25:09;11.90;70.80
36280;DHT22;22317;47.936;12.742;2023-08-06T02:27:35;11.90;71.70
36280;DHT22;22317;47.936;12.742;2023-08-06T02:30:01;11.90;70.90
36280;DHT22;22317;47.936;12.742;2023-08-06T02:32:28;11.90;71.00
36280;DHT22;22317;47.936;12.742;2023-08-06T02:34:55;11.90;71.10
36280;DHT22;22317;47.936;12.742;2023-08-06T02:37:21;11.90;70.90
36280;DHT22;22317;47.936;12.742;2023-08-06T02:39:47;11.90;70.80
36280;DHT22;22317;47.936;12.742;2023-08-06T02:42:13;11.90;70.90
36280;DHT22;22317;47.936;12.742;2023-08-06T02:44:39;11.90;71.00
36280;DHT22;22317;47.936;12.742;2023-08-06T02:47:05;12.00;71.20
36280;DHT22;22317;47.936;12.742;2023-08-06T02:49:31;11.90;71.10
36280;DHT22;22317;47.936;12.742;2023-08-06T02:51:56;12.00;71.10
36280;DHT22;22317;47.936;12.742;2023-08-06T02:54:23;12.00;71.10
36280;DHT22;22317;47.936;12.742;2023-08-06T02:56:49;12.00;71.00
36280;DHT22;22317;47.936;12.742;2023-08-06T02:59:23;12.00;71.10
36280;DHT22;22317;47.936;12.742;2023-08-06T03:01:59;12.00;71.00
36280;DHT22;22317;47.936;12.742;2023-08-06T03:04:33;12.00;71.00
36280;DHT22;22317;47.936;12.742;2023-08-06T03:06:58;12.00;71.00
36280;DHT22;22317;47.936;12.742;2023-08-06T03:09:31;12.10;71.20
36280;DHT22;22317;47.936;12.742;2023-08-06T03:11:58;12.10;71.10
36280;DHT22;22317;47.936;12.742;2023-08-06T03:14:24;12.10;71.10
36280;DHT22;22317;47.936;12.742;2023-08-06T03:16:49;12.20;71.00
36280;DHT22;22317;47.936;12.742;2023-08-06T03:19:42;12.20;70.90
36280;DHT22;22317;47.936;12.742;2023-08-06T03:22:10;12.20;70.80
36280;DHT22;22317;47.936;12.742;2023-08-06T03:24:37;12.20;70.80
36280;DHT22;22317;47.936;12.742;2023-08-06T03:27:03;12.20;70.60
36280;DHT22;22317;47.936;12.742;2023-08-06T03:29:30;12.20;70.70
36280;DHT22;22317;47.936;12.742;2023-08-06T03:31:58;12.20;70.70
36280;DHT22;22317;47.936;12.742;2023-08-06T03:34:24;12.20;70.70
36280;DHT22;22317;47.936;12.742;2023-08-06T03:36:51;12.20;70.50
36280;DHT22;22317;47.936;12.742;2023-08-06T03:39:17;12.10;70.30
36280;DHT22;22317;47.936;12.742;2023-08-06T03:41:43;12.10;70.20
36280;DHT22;22317;47.936;12.742;2023-08-06T03:44:08;12.10;70.20
36280;DHT22;22317;47.936;12.742;2023-08-06T03:46:34;12.10;70.20
36280;DHT22;22317;47.936;12.742;2023-08-06T03:49:02;12.00;69.90
36280;DHT22;22317;47.936;12.742;2023-08-06T03:51:28;12.00;69.90
36280;DHT22;22317;47.936;12.742;2023-08-06T03:53:55;12.00;69.90
36280;DHT22;22317;47.936;12.742;2023-08-06T03:56:21;11.90;69.70
36280;DHT22;22317;47.936;12.742;2023-08-06T03:58:47;11.90;69.70
36280;DHT22;22317;47.936;12.742;2023-08-06T04:01:12;11.90;69.80
36280;DHT22;22317;47.936;12.742;2023-08-06T04:03:44;11.90;69.60
36280;DHT22;22317;47.936;12.742;2023-08-06T04:06:09;11.90;69.60
36280;DHT22;22317;47.936;12.742;2023-08-06T04:08:36;11.90;69.60
36280;DHT22;22317;47.936;12.742;2023-08-06T04:11:02;11.90;69.50
36280;DHT22;22317;47.936;12.742;2023-08-06T04:13:28;11.90;69.40
36280;DHT22;22317;47.936;12.742;2023-08-06T04:16:01;11.90;69.30
36280;DHT22;22317;47.936;12.742;2023-08-06T04:18:27;11.90;69.30
36280;DHT22;22317;47.936;12.742;2023-08-06T04:20:52;12.00;69.40
36280;DHT22;22317;47.936;12.742;2023-08-06T04:23:20;11.90;69.30
36280;DHT22;22317;47.936;12.742;2023-08-06T04:25:46;11.90;69.30
36280;DHT22;22317;47.936;12.742;2023-08-06T04:28:13;12.00;69.30
36280;DHT22;22317;47.936;12.742;2023-08-06T04:30:39;11.90;69.30
36280;DHT22;22317;47.936;12.742;2023-08-06T04:33:05;12.00;69.30
36280;DHT22;22317;47.936;12.742;2023-08-06T04:35:31;12.00;69.30
36280;DHT22;22317;47.936;12.742;2023-08-06T04:37:57;12.00;69.30
36280;DHT22;22317;47.936;12.742;2023-08-06T04:40:23;12.10;69.30
36280;DHT22;22317;47.936;12.742;2023-08-06T04:42:49;12.10;69.20
36280;DHT22;22317;47.936;12.742;2023-08-06T04:45:14;12.10;69.20
36280;DHT22;22317;47.936;12.742;2023-08-06T04:47:40;12.10;69.00
36280;DHT22;22317;47.936;12.742;2023-08-06T04:50:06;12.20;69.00
36280;DHT22;22317;47.936;12.742;2023-08-06T04:52:32;12.20;68.90
36280;DHT22;22317;47.936;12.742;2023-08-06T04:54:58;12.20;68.80
36280;DHT22;22317;47.936;12.742;2023-08-06T04:57:23;12.20;68.70
36280;DHT22;22317;47.936;12.742;2023-08-06T04:59:49;12.20;69.40
36280;DHT22;22317;47.936;12.742;2023-08-06T05:02:15;12.20;68.70
36280;DHT22;22317;47.936;12.742;2023-08-06T05:04:41;12.20;68.70
36280;DHT22;22317;47.936;12.742;2023-08-06T05:07:07;12.30;68.80
36280;DHT22;22317;47.936;12.742;2023-08-06T05:09:32;12.30;68.70
36280;DHT22;22317;47.936;12.742;2023-08-06T05:12:01;12.40;68.70
36280;DHT22;22317;47.936;12.742;2023-08-06T05:14:27;12.40;68.70
36280;DHT22;22317;47.936;12.742;2023-08-06T05:16:53;12.50;68.80
36280;DHT22;22317;47.936;12.742;2023-08-06T05:19:19;12.50;68.80
36280;DHT22;22317;47.936;12.742;2023-08-06T05:21:44;12.60;68.70
36280;DHT22;22317;47.936;12.742;2023-08-06T05:24:10;12.60;68.60
36280;DHT22;22317;47.936;12.742;2023-08-06T05:26:36;12.60;68.30
36280;DHT22;22317;47.936;12.742;2023-08-06T05:29:02;12.60;68.00
36280;DHT22;22317;47.936;12.742;2023-08-06T05:31:27;12.70;68.10
36280;DHT22;22317;47.936;12.742;2023-08-06T05:33:54;12.60;67.90
36280;DHT22;22317;47.936;12.742;2023-08-06T05:36:20;12.60;67.80
36280;DHT22;22317;47.936;12.742;2023-08-06T05:38:47;12.60;67.70
36280;DHT22;22317;47.936;12.742;2023-08-06T05:41:13;12.60;67.60
36280;DHT22;22317;47.936;12.742;2023-08-06T05:43:38;12.60;67.40
36280;DHT22;22317;47.936;12.742;2023-08-06T05:46:04;12.60;67.60
36280;DHT22;22317;47.936;12.742;2023-08-06T05:48:30;12.60;67.40
36280;DHT22;22317;47.936;12.742;2023-08-06T05:50:55;12.60;67.20
36280;DHT22;22317;47.936;12.742;2023-08-06T05:53:21;12.60;67.10
36280;DHT22;22317;47.936;12.742;2023-08-06T05:55:47;12.50;66.90
36280;DHT22;22317;47.936;12.742;2023-08-06T05:58:13;12.50;66.80
36280;DHT22;22317;47.936;12.742;2023-08-06T06:00:38;12.60;66.80
36280;DHT22;22317;47.936;12.742;2023-08-06T06:03:04;12.50;66.50
36280;DHT22;22317;47.936;12.742;2023-08-06T06:05:30;12.50;66.40
36280;DHT22;22317;47.936;12.742;2023-08-06T06:07:56;12.60;66.30
36280;DHT22;22317;47.936;12.742;2023-08-06T06:10:21;12.60;66.30
36280;DHT22;22317;47.936;12.742;2023-08-06T06:12:47;12.60;66.30
36280;DHT22;22317;47.936;12.742;2023-08-06T06:15:13;12.60;66.10
36280;DHT22;22317;47.936;12.742;2023-08-06T06:17:38;12.70;65.90
36280;DHT22;22317;47.936;12.742;2023-08-06T06:20:05;12.70;65.90
36280;DHT22;22317;47.936;12.742;2023-08-06T06:22:31;12.80;65.90
36280;DHT22;22317;47.936;12.742;2023-08-06T06:24:56;12.80;65.60
36280;DHT22;22317;47.936;12.742;2023-08-06T06:27:22;12.90;65.60
36280;DHT22;22317;47.936;12.742;2023-08-06T06:29:48;12.90;65.60
36280;DHT22;22317;47.936;12.742;2023-08-06T06:32:13;13.00;65.30
36280;DHT22;22317;47.936;12.742;2023-08-06T06:34:39;13.10;65.10
36280;DHT22;22317;47.936;12.742;2023-08-06T06:37:05;13.10;65.20
36280;DHT22;22317;47.936;12.742;2023-08-06T06:39:31;13.20;64.90
36280;DHT22;22317;47.936;12.742;2023-08-06T06:41:56;13.20;64.60
36280;DHT22;22317;47.936;12.742;2023-08-06T06:44:30;13.20;64.30
36280;DHT22;22317;47.936;12.742;2023-08-06T06:46:56;13.20;64.30
36280;DHT22;22317;47.936;12.742;2023-08-06T06:49:22;13.20;64.30
36280;DHT22;22317;47.936;12.742;2023-08-06T06:51:47;13.20;64.30
36280;DHT22;22317;47.936;12.742;2023-08-06T06:54:13;13.10;64.20
36280;DHT22;22317;47.936;12.742;2023-08-06T06:56:39;13.10;64.10
36280;DHT22;22317;47.936;12.742;2023-08-06T06:59:05;13.00;64.00
36280;DHT22;22317;47.936;12.742;2023-08-06T07:01:30;13.00;64.10
36280;DHT22;22317;47.936;12.742;2023-08-06T07:03:56;13.00;64.30
36280;DHT22;22317;47.936;12.742;2023-08-06T07:06:22;13.00;64.50
36280;DHT22;22317;47.936;12.742;2023-08-06T07:08:48;13.00;64.60
36280;DHT22;22317;47.936;12.742;2023-08-06T07:11:14;13.10;64.70
36280;DHT22;22317;47.936;12.742;2023-08-06T07:13:39;13.10;64.80
36280;DHT22;22317;47.936;12.742;2023-08-06T07:16:05;13.20;64.80
36280;DHT22;22317;47.936;12.742;2023-08-06T07:18:31;13.30;64.90
36280;DHT22;22317;47.936;12.742;2023-08-06T07:20:57;13.30;65.50
36280;DHT22;22317;47.936;12.742;2023-08-06T07:23:24;13.40;64.80
36280;DHT22;22317;47.936;12.742;2023-08-06T07:25:50;13.50;64.70
36280;DHT22;22317;47.936;12.742;2023-08-06T07:28:16;13.50;64.70
36280;DHT22;22317;47.936;12.742;2023-08-06T07:30:43;13.50;64.40
36280;DHT22;22317;47.936;12.742;2023-08-06T07:33:09;13.60;64.40
36280;DHT22;22317;47.936;12.742;2023-08-06T07:35:35;13.60;64.30
36280;DHT22;22317;47.936;12.742;2023-08-06T07:38:02;13.60;64.20
36280;DHT22;22317;47.936;12.742;2023-08-06T07:40:27;13.70;64.10
36280;DHT22;22317;47.936;12.742;2023-08-06T07:42:54;13.80;64.10
36280;DHT22;22317;47.936;12.742;2023-08-06T07:45:20;13.90;64.00
36280;DHT22;22317;47.936;12.742;2023-08-06T07:47:45;13.90;63.70
36280;DHT22;22317;47.936;12.742;2023-08-06T07:50:12;14.00;63.20
36280;DHT22;22317;47.936;12.742;2023-08-06T07:52:38;14.00;63.00
36280;DHT22;22317;47.936;12.742;2023-08-06T07:55:04;14.10;63.10
36280;DHT22;22317;47.936;12.742;2023-08-06T07:57:31;14.20;63.20
36280;DHT22;22317;47.936;12.742;2023-08-06T07:59:57;14.40;62.90
36280;DHT22;22317;47.936;12.742;2023-08-06T08:02:23;14.60;62.80
36280;DHT22;22317;47.936;12.742;2023-08-06T08:04:49;14.70;62.40
36280;DHT22;22317;47.936;12.742;2023-08-06T08:07:14;14.80;61.60
36280;DHT22;22317;47.936;12.742;2023-08-06T08:09:40;14.80;60.80
36280;DHT22;22317;47.936;12.742;2023-08-06T08:12:06;14.80;60.40
36280;DHT22;22317;47.936;12.742;2023-08-06T08:14:32;14.80;60.30
36280;DHT22;22317;47.936;12.742;2023-08-06T08:17:05;14.90;60.40
36280;DHT22;22317;47.936;12.742;2023-08-06T08:19:32;15.00;60.30
36280;DHT22;22317;47.936;12.742;2023-08-06T08:21:58;15.10;60.30
36280;DHT22;22317;47.936;12.742;2023-08-06T08:24:24;15.20;59.90
36280;DHT22;22317;47.936;12.742;2023-08-06T08:26:51;15.40;59.60
36280;DHT22;22317;47.936;12.742;2023-08-06T08:29:17;15.50;59.10
36280;DHT22;22317;47.936;12.742;2023-08-06T08:31:42;15.60;58.50
36280;DHT22;22317;47.936;12.742;2023-08-06T08:34:09;15.60;58.30
36280;DHT22;22317;47.936;12.742;2023-08-06T08:36:35;15.70;58.10
36280;DHT22;22317;47.936;12.742;2023-08-06T08:39:00;15.70;58.00
36280;DHT22;22317;47.936;12.742;2023-08-06T08:41:33;15.80;57.70
36280;DHT22;22317;47.936;12.742;2023-08-06T08:43:59;15.80;57.20
36280;DHT22;22317;47.936;12.742;2023-08-06T08:46:30;15.90;56.90
36280;DHT22;22317;47.936;12.742;2023-08-06T08:48:59;15.80;56.10
36280;DHT22;22317;47.936;12.742;2023-08-06T08:51:28;15.60;55.60
36280;DHT22;22317;47.936;12.742;2023-08-06T08:53:56;16.40;56.20
36280;DHT22;22317;47.936;12.742;2023-08-06T08:56:23;15.30;56.10
36280;DHT22;22317;47.936;12.742;2023-08-06T08:58:49;15.20;56.50
36280;DHT22;22317;47.936;12.742;2023-08-06T09:01:15;15.10;56.90
36280;DHT22;22317;47.936;12.742;2023-08-06T09:03:43;15.10;57.10
36280;DHT22;22317;47.936;12.742;2023-08-06T09:06:11;15.10;57.30
36280;DHT22;22317;47.936;12.742;2023-08-06T09:09:25;15.10;57.30
36280;DHT22;22317;47.936;12.742;2023-08-06T09:11:31;15.10;57.20
36280;DHT22;22317;47.936;12.742;2023-08-06T09:14:06;15.20;57.20
36280;DHT22;22317;47.936;12.742;2023-08-06T09:16:37;15.20;57.00
36280;DHT22;22317;47.936;12.742;2023-08-06T09:19:10;15.20;57.10
36280;DHT22;22317;47.936;12.742;2023-08-06T09:21:38;15.30;57.00
36280;DHT22;22317;47.936;12.742;2023-08-06T09:24:14;15.40;57.00
36280;DHT22;22317;47.936;12.742;2023-08-06T09:26:41;15.40;56.60
36280;DHT22;22317;47.936;12.742;2023-08-06T09:29:09;15.60;56.70
36280;DHT22;22317;47.936;12.742;2023-08-06T09:31:50;15.80;56.60
36280;DHT22;22317;47.936;12.742;2023-08-06T09:34:22;16.00;56.10
36280;DHT22;22317;47.936;12.742;2023-08-06T09:36:52;16.20;55.70
36280;DHT22;22317;47.936;12.742;2023-08-06T09:39:31;16.30;55.80
36280;DHT22;22317;47.936;12.742;2023-08-06T09:41:58;16.40;55.20
36280;DHT22;22317;47.936;12.742;2023-08-06T09:44:25;16.40;54.50
36280;DHT22;22317;47.936;12.742;2023-08-06T09:46:53;16.40;53.80
36280;DHT22;22317;47.936;12.742;2023-08-06T09:49:21;16.30;53.50
36280;DHT22;22317;47.936;12.742;2023-08-06T09:51:47;16.20;53.30
36280;DHT22;22317;47.936;12.742;2023-08-06T09:54:17;16.10;53.10
36280;DHT22;22317;47.936;12.742;2023-08-06T09:56:43;16.00;52.90
36280;DHT22;22317;47.936;12.742;2023-08-06T09:59:09;15.90;52.80
36280;DHT22;22317;47.936;12.742;2023-08-06T10:01:36;15.90;53.00
36280;DHT22;22317;47.936;12.742;2023-08-06T10:04:04;15.80;52.70
36280;DHT22;22317;47.936;12.742;2023-08-06T10:06:34;15.80;52.90
36280;DHT22;22317;47.936;12.742;2023-08-06T10:09:00;15.80;53.30
36280;DHT22;22317;47.936;12.742;2023-08-06T10:11:26;16.00;53.50
36280;DHT22;22317;47.936;12.742;2023-08-06T10:16:46;16.20;52.40
36280;DHT22;22317;47.936;12.742;2023-08-06T10:19:14;16.30;52.50
36280;DHT22;22317;47.936;12.742;2023-08-06T10:21:41;16.30;52.80
36280;DHT22;22317;47.936;12.742;2023-08-06T10:24:07;16.30;52.70
36280;DHT22;22317;47.936;12.742;2023-08-06T10:26:37;16.30;51.90
36280;DHT22;22317;47.936;12.742;2023-08-06T10:29:37;16.20;51.70
36280;DHT22;22317;47.936;12.742;2023-08-06T10:32:04;16.10;51.40
36280;DHT22;22317;47.936;12.742;2023-08-06T10:34:58;15.90;51.60
36280;DHT22;22317;47.936;12.742;2023-08-06T10:37:44;15.80;51.50
36280;DHT22;22317;47.936;12.742;2023-08-06T10:40:10;15.70;52.00
36280;DHT22;22317;47.936;12.742;2023-08-06T10:42:36;15.70;52.00
36280;DHT22;22317;47.936;12.742;2023-08-06T10:47:38;15.40;52.40
36280;DHT22;22317;47.936;12.742;2023-08-06T10:50:10;15.20;52.70
36280;DHT22;22317;47.936;12.742;2023-08-06T10:52:36;15.00;53.20
36280;DHT22;22317;47.936;12.742;2023-08-06T10:55:02;14.90;53.90
36280;DHT22;22317;47.936;12.742;2023-08-06T10:57:28;14.90;54.10
36280;DHT22;22317;47.936;12.742;2023-08-06T10:59:54;14.90;54.20
36280;DHT22;22317;47.936;12.742;2023-08-06T11:02:19;14.90;54.40
36280;DHT22;22317;47.936;12.742;2023-08-06T11:04:45;15.10;54.90
36280;DHT22;22317;47.936;12.742;2023-08-06T11:07:13;15.30;55.30
36280;DHT22;22317;47.936;12.742;2023-08-06T11:09:39;15.60;55.10
36280;DHT22;22317;47.936;12.742;2023-08-06T11:12:11;15.80;54.80
36280;DHT22;22317;47.936;12.742;2023-08-06T11:14:37;16.00;54.40
36280;DHT22;22317;47.936;12.742;2023-08-06T11:17:05;16.10;53.80
36280;DHT22;22317;47.936;12.742;2023-08-06T11:19:31;16.20;53.00
36280;DHT22;22317;47.936;12.742;2023-08-06T11:21:57;16.10;52.70
36280;DHT22;22317;47.936;12.742;2023-08-06T11:24:24;15.40;52.30
36280;DHT22;22317;47.936;12.742;2023-08-06T11:26:49;15.90;52.70
36280;DHT22;22317;47.936;12.742;2023-08-06T11:29:16;15.90;52.70
36280;DHT22;22317;47.936;12.742;2023-08-06T11:31:42;15.80;52.30
36280;DHT22;22317;47.936;12.742;2023-08-06T11:34:08;15.90;52.60
36280;DHT22;22317;47.936;12.742;2023-08-06T11:36:40;16.10;52.70
36280;DHT22;22317;47.936;12.742;2023-08-06T11:39:06;16.30;52.60
36280;DHT22;22317;47.936;12.742;2023-08-06T11:41:33;16.60;52.20
36280;DHT22;22317;47.936;12.742;2023-08-06T11:43:59;16.80;51.40
36280;DHT22;22317;47.936;12.742;2023-08-06T11:46:25;16.80;50.40
36280;DHT22;22317;47.936;12.742;2023-08-06T11:48:52;16.80;50.10
36280;DHT22;22317;47.936;12.742;2023-08-06T11:51:18;16.70;49.80
36280;DHT22;22317;47.936;12.742;2023-08-06T11:53:49;16.60;50.00
36280;DHT22;22317;47.936;12.742;2023-08-06T11:56:16;16.80;50.10
36280;DHT22;22317;47.936;12.742;2023-08-06T11:58:42;16.90;50.10
36280;DHT22;22317;47.936;12.742;2023-08-06T12:01:08;17.10;49.70
36280;DHT22;22317;47.936;12.742;2023-08-06T12:03:39;17.20;49.20
36280;DHT22;22317;47.936;12.742;2023-08-06T12:06:05;17.30;48.30
36280;DHT22;22317;47.936;12.742;2023-08-06T12:08:33;17.30;48.10
36280;DHT22;22317;47.936;12.742;2023-08-06T12:10:59;17.20;47.80
36280;DHT22;22317;47.936;12.742;2023-08-06T12:13:24;17.10;47.50
36280;DHT22;22317;47.936;12.742;2023-08-06T12:15:50;16.90;47.90
36280;DHT22;22317;47.936;12.742;2023-08-06T12:18:18;16.80;47.70
36280;DHT22;22317;47.936;12.742;2023-08-06T12:20:44;16.60;47.60
36280;DHT22;22317;47.936;12.742;2023-08-06T12:23:10;16.50;48.20
36280;DHT22;22317;47.936;12.742;2023-08-06T12:25:38;16.60;48.40
36280;DHT22;22317;47.936;12.742;2023-08-06T12:28:04;16.80;48.40
36280;DHT22;22317;47.936;12.742;2023-08-06T12:30:31;16.90;48.60
36280;DHT22;22317;47.936;12.742;2023-08-06T12:32:57;17.10;48.00
36280;DHT22;22317;47.936;12.742;2023-08-06T12:35:22;17.10;47.70
36280;DHT22;22317;47.936;12.742;2023-08-06T12:37:48;17.20;47.50
36280;DHT22;22317;47.936;12.742;2023-08-06T12:40:14;17.20;47.00
36280;DHT22;22317;47.936;12.742;2023-08-06T12:42:40;17.20;46.80
36280;DHT22;22317;47.936;12.742;2023-08-06T12:45:06;17.10;46.70
36280;DHT22;22317;47.936;12.742;2023-08-06T12:47:31;17.20;46.70
36280;DHT22;22317;47.936;12.742;2023-08-06T12:49:57;17.30;46.90
36280;DHT22;22317;47.936;12.742;2023-08-06T12:52:23;17.50;46.60
36280;DHT22;22317;47.936;12.742;2023-08-06T12:54:48;17.70;46.50
36280;DHT22;22317;47.936;12.742;2023-08-06T12:57:14;17.70;45.70
36280;DHT22;22317;47.936;12.742;2023-08-06T12:59:40;17.90;45.90
36280;DHT22;22317;47.936;12.742;2023-08-06T13:02:06;17.90;46.10
36280;DHT22;22317;47.936;12.742;2023-08-06T13:04:32;17.90;46.10
36280;DHT22;22317;47.936;12.742;2023-08-06T13:06:59;18.00;45.80
36280;DHT22;22317;47.936;12.742;2023-08-06T13:09:25;18.00;45.30
36280;DHT22;22317;47.936;12.742;2023-08-06T13:11:52;17.90;44.90
36280;DHT22;22317;47.936;12.742;2023-08-06T13:14:18;17.70;44.70
36280;DHT22;22317;47.936;12.742;2023-08-06T13:16:44;17.50;45.50
36280;DHT22;22317;47.936;12.742;2023-08-06T13:19:10;17.60;45.90
36280;DHT22;22317;47.936;12.742;2023-08-06T13:24:07;17.80;45.60
36280;DHT22;22317;47.936;12.742;2023-08-06T13:26:33;17.50;45.20
36280;DHT22;22317;47.936;12.742;2023-08-06T13:29:00;17.90;45.30
36280;DHT22;22317;47.936;12.742;2023-08-06T13:31:26;18.00;45.20
36280;DHT22;22317;47.936;12.742;2023-08-06T13:33:55;18.00;45.20
36280;DHT22;22317;47.936;12.742;2023-08-06T13:36:21;18.10;45.10
36280;DHT22;22317;47.936;12.742;2023-08-06T13:38:47;18.30;45.20
36280;DHT22;22317;47.936;12.742;2023-08-06T13:41:13;18.40;44.90
36280;DHT22;22317;47.936;12.742;2023-08-06T13:43:39;18.50;45.70
36280;DHT22;22317;47.936;12.742;2023-08-06T13:46:05;18.60;44.40
36280;DHT22;22317;47.936;12.742;2023-08-06T13:48:31;18.70;43.90
36280;DHT22;22317;47.936;12.742;2023-08-06T13:50:58;18.70;43.60
36280;DHT22;22317;47.936;12.742;2023-08-06T13:53:24;18.50;43.00
36280;DHT22;22317;47.936;12.742;2023-08-06T13:55:55;18.40;43.10
36280;DHT22;22317;47.936;12.742;2023-08-06T13:58:22;18.20;43.00
36280;DHT22;22317;47.936;12.742;2023-08-06T14:00:48;18.00;43.40
36280;DHT22;22317;47.936;12.742;2023-08-06T14:03:14;17.90;43.30
36280;DHT22;22317;47.936;12.742;2023-08-06T14:05:39;17.60;43.20
36280;DHT22;22317;47.936;12.742;2023-08-06T14:08:05;17.40;43.60
36280;DHT22;22317;47.936;12.742;2023-08-06T14:10:31;17.40;44.40
36280;DHT22;22317;47.936;12.742;2023-08-06T14:12:56;17.40;44.80
36280;DHT22;22317;47.936;12.742;2023-08-06T14:15:22;17.30;44.40
36280;DHT22;22317;47.936;12.742;2023-08-06T14:17:48;17.10;45.00
36280;DHT22;22317;47.936;12.742;2023-08-06T14:20:14;16.90;45.10
36280;DHT22;22317;47.936;12.742;2023-08-06T14:22:40;16.70;45.60
36280;DHT22;22317;47.936;12.742;2023-08-06T14:25:06;16.50;45.70
36280;DHT22;22317;47.936;12.742;2023-08-06T14:27:32;16.40;46.00
36280;DHT22;22317;47.936;12.742;2023-08-06T14:29:58;16.20;46.10
36280;DHT22;22317;47.936;12.742;2023-08-06T14:32:24;16.10;46.20
36280;DHT22;22317;47.936;12.742;2023-08-06T14:34:49;16.10;46.40
36280;DHT22;22317;47.936;12.742;2023-08-06T14:37:15;16.00;46.40
36280;DHT22;22317;47.936;12.742;2023-08-06T14:39:41;15.80;46.50
36280;DHT22;22317;47.936;12.742;2023-08-06T14:42:07;15.70;46.60
36280;DHT22;22317;47.936;12.742;2023-08-06T14:44:32;15.60;46.80
36280;DHT22;22317;47.936;12.742;2023-08-06T14:46:58;15.50;47.10
36280;DHT22;22317;47.936;12.742;2023-08-06T14:49:24;15.40;47.20
36280;DHT22;22317;47.936;12.742;2023-08-06T14:51:50;15.20;47.50
36280;DHT22;22317;47.936;12.742;2023-08-06T14:54:17;15.10;47.50
36280;DHT22;22317;47.936;12.742;2023-08-06T14:56:44;15.00;47.80
36280;DHT22;22317;47.936;12.742;2023-08-06T14:59:10;14.80;48.00
36280;DHT22;22317;47.936;12.742;2023-08-06T15:01:36;14.60;48.30
36280;DHT22;22317;47.936;12.742;2023-08-06T15:04:01;14.50;48.90
36280;DHT22;22317;47.936;12.742;2023-08-06T15:06:27;14.40;49.30
36280;DHT22;22317;47.936;12.742;2023-08-06T15:08:53;14.30;49.80
36280;DHT22;22317;47.936;12.742;2023-08-06T15:11:23;14.20;50.20
36280;DHT22;22317;47.936;12.742;2023-08-06T15:13:49;14.10;50.50
36280;DHT22;22317;47.936;12.742;2023-08-06T15:16:14;14.00;50.60
36280;DHT22;22317;47.936;12.742;2023-08-06T15:18:40;14.00;50.90
36280;DHT22;22317;47.936;12.742;2023-08-06T15:21:06;14.00;51.10
36280;DHT22;22317;47.936;12.742;2023-08-06T15:23:32;14.00;51.20
36280;DHT22;22317;47.936;12.742;2023-08-06T15:25:57;14.00;52.00